createdAt,value
2023-05-13T00:04:05.459Z,9.30
2023-05-13T00:09:07.981Z,9.37
2023-05-13T00:14:11.751Z,11.77
2023-05-13T00:19:14.346Z,8.67
2023-05-13T00:24:16.874Z,11.57
2023-05-13T00:29:19.429Z,9.57
2023-05-13T00:34:21.971Z,8.50
2023-05-13T00:39:24.787Z,8.13
2023-05-13T00:44:28.484Z,8.87
2023-05-13T00:49:32.108Z,7.70
2023-05-13T00:54:34.616Z,9.63
2023-05-13T00:59:37.111Z,8.90
2023-05-13T01:04:44.854Z,9.27
2023-05-13T01:10:13.776Z,13.50
2023-05-13T01:15:21.836Z,17.23
2023-05-13T01:20:27.038Z,10.20
2023-05-13T01:25:30.033Z,10.13
2023-05-13T01:30:35.101Z,9.47
2023-05-13T01:35:40.211Z,10.20
2023-05-13T01:40:46.390Z,18.60
2023-05-13T01:45:49.797Z,10.10
2023-05-13T01:50:52.797Z,9.37
2023-05-13T01:55:55.324Z,11.97
2023-05-13T02:00:58.016Z,9.03
2023-05-13T02:06:00.572Z,13.53
2023-05-13T02:11:03.148Z,11.30
2023-05-13T02:16:06.779Z,13.77
2023-05-13T02:21:09.782Z,10.20
2023-05-13T02:26:12.290Z,12.93
2023-05-13T02:31:14.914Z,9.60
2023-05-13T02:36:19.030Z,9.67
2023-05-13T02:41:22.325Z,14.03
2023-05-13T02:46:26.146Z,9.43
2023-05-13T02:51:30.466Z,10.97
2023-05-13T02:56:33.929Z,12.83
2023-05-13T03:01:36.522Z,12.73
2023-05-13T03:06:39.074Z,8.40
2023-05-13T03:11:41.781Z,9.17
2023-05-13T03:16:45.022Z,10.83
2023-05-13T03:21:50.372Z,11.70
2023-05-13T03:26:53.162Z,11.47
2023-05-13T03:31:56.106Z,13.73
2023-05-13T03:37:00.174Z,11.57
2023-05-13T03:42:05.124Z,13.37
2023-05-13T03:47:07.897Z,12.67
2023-05-13T03:52:10.669Z,19.40
2023-05-13T03:57:13.518Z,14.30
2023-05-13T04:02:16.526Z,17.53
2023-05-13T04:07:19.188Z,16.60
2023-05-13T04:12:21.678Z,9.77
2023-05-13T04:17:24.151Z,13.23
2023-05-13T04:22:26.848Z,12.80
2023-05-13T04:27:29.413Z,14.83
2023-05-13T04:32:39.255Z,10.30
2023-05-13T04:37:42.242Z,19.87
2023-05-13T04:42:54.694Z,22.23
2023-05-13T04:48:02.812Z,18.97
2023-05-13T04:53:05.616Z,14.53
2023-05-13T04:58:09.216Z,11.27
2023-05-13T05:03:12.579Z,15.13
2023-05-13T05:08:15.909Z,12.23
2023-05-13T05:13:19.483Z,12.90
2023-05-13T05:18:22.148Z,12.37
2023-05-13T05:23:26.740Z,12.17
2023-05-13T05:28:29.788Z,14.73
2023-05-13T05:33:32.663Z,12.43
2023-05-13T05:38:35.716Z,15.63
2023-05-13T05:43:39.202Z,11.43
2023-05-13T05:48:41.992Z,16.20
2023-05-13T05:53:44.708Z,10.50
2023-05-13T05:58:49.312Z,12.70
2023-05-13T06:03:54.907Z,12.07
2023-05-13T06:08:58.049Z,10.50
2023-05-13T06:14:00.889Z,10.07
2023-05-13T06:19:03.608Z,7.63
2023-05-13T06:24:06.413Z,8.93
2023-05-13T06:29:08.796Z,7.40
2023-05-13T06:34:16.493Z,6.23
2023-05-13T06:39:19.497Z,13.27
2023-05-13T06:44:23.126Z,8.53
2023-05-13T06:49:30.135Z,10.17
2023-05-13T06:54:32.628Z,7.03
2023-05-13T06:59:36.100Z,10.20
2023-05-13T07:04:39.348Z,7.90
2023-05-13T07:09:42.142Z,6.97
2023-05-13T07:14:45.314Z,7.50
2023-05-13T07:19:47.707Z,7.07
2023-05-13T07:24:50.192Z,7.40
2023-05-13T07:29:52.640Z,8.00
2023-05-13T07:34:55.104Z,7.03
2023-05-13T07:39:57.781Z,6.73
2023-05-13T07:45:00.654Z,6.73
2023-05-13T07:50:03.575Z,7.90
2023-05-13T07:55:06.547Z,7.57
2023-05-13T08:00:09.832Z,6.23
2023-05-13T08:05:18.242Z,7.90
2023-05-13T08:10:21.207Z,8.03
2023-05-13T08:15:25.011Z,5.70
2023-05-13T08:20:30.003Z,8.03
2023-05-13T08:25:32.817Z,10.65
2023-05-13T08:30:35.525Z,8.45
2023-05-13T08:35:38.239Z,13.60
2023-05-13T08:40:42.422Z,8.97
2023-05-13T08:45:47.840Z,7.67
2023-05-13T08:50:50.884Z,9.30
2023-05-13T08:55:54.829Z,7.47
2023-05-13T09:00:58.221Z,17.37
2023-05-13T09:06:01.855Z,6.57
2023-05-13T09:11:04.452Z,6.63
2023-05-13T09:16:07.357Z,8.70
2023-05-13T09:21:24.663Z,8.50
2023-05-13T09:26:30.730Z,5.67
2023-05-13T09:31:33.870Z,6.97
2023-05-13T09:36:36.574Z,9.75
2023-05-13T09:41:39.397Z,8.73
2023-05-13T09:46:43.319Z,8.40
2023-05-13T09:51:46.284Z,8.20
2023-05-13T09:56:48.864Z,10.15
2023-05-13T10:01:51.420Z,8.50
2023-05-13T10:06:55.006Z,8.80
2023-05-13T10:11:59.115Z,8.57
2023-05-13T10:17:02.547Z,15.18
2023-05-13T10:22:06.520Z,6.93
2023-05-13T10:27:11.244Z,5.47
2023-05-13T10:32:14.539Z,8.98
2023-05-13T10:37:48.328Z,16.03
2023-05-13T10:43:18.299Z,9.17
2023-05-13T10:48:20.980Z,4.57
2023-05-13T10:53:24.657Z,7.03
2023-05-13T10:58:39.605Z,7.93
2023-05-13T11:03:50.843Z,8.73
2023-05-13T11:08:55.964Z,11.10
2023-05-13T11:14:21.022Z,6.60
2023-05-13T11:19:35.658Z,3.90
2023-05-13T11:24:38.601Z,6.13
2023-05-13T11:29:48.772Z,7.82
2023-05-13T11:34:51.887Z,10.77
2023-05-13T11:39:54.384Z,7.73
2023-05-13T11:44:57.322Z,4.47
2023-05-13T11:49:59.841Z,5.25
2023-05-13T11:55:02.435Z,4.20
2023-05-13T12:00:07.482Z,4.75
2023-05-13T12:05:14.209Z,8.20
2023-05-13T12:10:17.328Z,4.15
2023-05-13T12:15:21.424Z,7.28
2023-05-13T12:20:24.861Z,6.72
2023-05-13T12:25:46.681Z,11.25
2023-05-13T12:31:00.361Z,5.20
2023-05-13T12:36:20.982Z,11.07
2023-05-13T12:41:25.973Z,8.23
2023-05-13T12:46:28.940Z,9.25
2023-05-13T12:51:33.034Z,10.40
2023-05-13T12:56:35.575Z,7.67
2023-05-13T13:01:38.007Z,5.97
2023-05-13T13:06:40.402Z,8.55
2023-05-13T13:11:42.786Z,9.65
2023-05-13T13:16:45.463Z,13.48
2023-05-13T13:21:47.996Z,5.40
2023-05-13T13:26:50.620Z,10.60
2023-05-13T13:31:53.105Z,5.90
2023-05-13T13:36:55.863Z,5.30
2023-05-13T13:41:58.322Z,6.63
2023-05-13T13:47:00.867Z,8.87
2023-05-13T13:52:03.557Z,17.57
2023-05-13T13:57:06.158Z,13.10
2023-05-13T14:02:09.988Z,7.85
2023-05-13T14:07:12.465Z,9.10
2023-05-13T14:12:14.978Z,8.03
2023-05-13T14:17:17.818Z,9.60
2023-05-13T14:22:21.699Z,8.85
2023-05-13T14:27:24.580Z,8.65
2023-05-13T14:32:27.321Z,8.83
2023-05-13T14:37:29.929Z,6.23
2023-05-13T14:42:32.768Z,18.02
2023-05-13T14:47:35.837Z,6.00
2023-05-13T14:52:38.357Z,5.43
2023-05-13T14:57:41.047Z,7.57
2023-05-13T15:02:43.592Z,9.20
2023-05-13T15:07:46.380Z,7.67
2023-05-13T15:12:48.895Z,8.23
2023-05-13T15:17:51.959Z,7.20
2023-05-13T15:22:55.415Z,9.18
2023-05-13T15:27:57.930Z,8.95
2023-05-13T15:33:00.563Z,7.23
2023-05-13T15:38:03.360Z,11.07
2023-05-13T15:43:05.968Z,15.53
2023-05-13T15:48:08.671Z,10.57
2023-05-13T15:53:11.302Z,6.90
2023-05-13T15:58:13.848Z,5.43
2023-05-13T16:03:17.121Z,7.10
2023-05-13T16:08:19.615Z,11.70
2023-05-13T16:13:22.310Z,9.63
2023-05-13T16:18:24.927Z,9.55
2023-05-13T16:23:27.484Z,8.43
2023-05-13T16:28:45.649Z,5.72
2023-05-13T16:34:13.454Z,9.00
2023-05-13T16:39:31.294Z,8.60
2023-05-13T16:44:38.123Z,9.75
2023-05-13T16:55:04.669Z,8.02
2023-05-13T17:00:08.498Z,8.90
2023-05-13T17:05:11.213Z,8.52
2023-05-13T17:10:13.716Z,10.50
2023-05-13T17:15:16.216Z,9.97
2023-05-13T17:20:19.884Z,20.08
2023-05-13T17:25:22.384Z,19.37
2023-05-13T17:30:25.040Z,4.77
2023-05-13T17:35:27.547Z,7.23
2023-05-13T17:40:30.202Z,8.30
2023-05-13T17:45:33.147Z,16.63
2023-05-13T17:50:35.733Z,23.83
2023-05-13T17:55:38.250Z,23.50
2023-05-13T18:00:40.932Z,17.03
2023-05-13T18:05:43.533Z,11.13
2023-05-13T18:10:47.011Z,11.97
2023-05-13T18:15:49.592Z,11.57
2023-05-13T18:20:52.894Z,10.87
2023-05-13T18:25:56.222Z,9.63
2023-05-13T18:30:59.113Z,11.00
2023-05-13T18:36:01.939Z,13.23
2023-05-13T18:41:05.076Z,14.93
2023-05-13T18:46:07.718Z,11.83
2023-05-13T18:51:11.439Z,16.93
2023-05-13T18:56:13.870Z,16.83
2023-05-13T19:01:16.528Z,36.10
2023-05-13T19:06:19.138Z,56.83
2023-05-13T19:11:21.667Z,13.20
2023-05-13T19:16:24.921Z,38.47
2023-05-13T19:21:27.408Z,40.60
2023-05-13T19:26:30.393Z,26.93
2023-05-13T19:31:33.069Z,28.63
2023-05-13T19:36:35.787Z,38.73
2023-05-13T19:41:39.129Z,23.60
2023-05-13T19:46:41.759Z,38.87
2023-05-13T19:51:44.258Z,38.13
2023-05-13T19:56:46.731Z,33.87
2023-05-13T20:01:49.274Z,23.53
2023-05-13T20:06:51.976Z,30.83
2023-05-13T20:11:54.413Z,28.73
2023-05-13T20:16:56.834Z,27.63
2023-05-13T20:21:59.308Z,19.73
2023-05-13T20:27:02.106Z,19.90
2023-05-13T20:32:06.001Z,22.23
2023-05-13T20:37:08.461Z,24.03
2023-05-13T20:42:11.313Z,18.23
2023-05-13T20:47:14.326Z,24.90
2023-05-13T20:52:17.073Z,25.13
2023-05-13T20:57:19.615Z,27.90
2023-05-13T21:02:22.057Z,31.20
2023-05-13T21:07:24.688Z,32.40
2023-05-13T21:12:27.069Z,34.87
2023-05-13T21:17:29.603Z,37.87
2023-05-13T21:22:32.067Z,32.63
2023-05-13T21:27:34.748Z,25.27
2023-05-13T21:32:37.301Z,21.10
2023-05-13T21:37:40.885Z,29.67
2023-05-13T21:42:43.663Z,27.33
2023-05-13T21:47:46.225Z,32.90
2023-05-13T21:52:48.733Z,25.50
2023-05-13T21:57:51.333Z,25.30
2023-05-13T22:02:54.004Z,25.70
2023-05-13T22:07:56.636Z,30.03
2023-05-13T22:12:59.118Z,27.00
2023-05-13T22:18:01.652Z,25.77
2023-05-13T22:23:04.293Z,31.20
2023-05-13T22:28:07.934Z,31.00
2023-05-13T22:33:10.789Z,25.77
2023-05-13T22:38:13.431Z,30.10
2023-05-13T22:43:16.005Z,29.20
2023-05-13T22:48:18.630Z,35.67
2023-05-13T22:53:21.136Z,56.37
2023-05-13T22:58:23.698Z,35.40
2023-05-13T23:03:26.211Z,34.40
2023-05-13T23:08:28.670Z,50.17
2023-05-13T23:13:31.253Z,40.07
2023-05-13T23:18:34.251Z,37.67
2023-05-13T23:23:37.287Z,32.00
2023-05-13T23:28:39.656Z,36.13
2023-05-13T23:33:42.284Z,27.67
2023-05-13T23:38:44.741Z,29.03
2023-05-13T23:43:47.262Z,18.57
2023-05-13T23:48:49.832Z,35.00
2023-05-13T23:53:54.390Z,41.47
2023-05-13T23:58:56.976Z,35.47
